sensor_id;sensor_type;location;lat;lon;timestamp;P1;durP1;ratioP1;P2;durP2;ratioP2
77423;SDS011;66494;47.172;14.678;2023-06-04T00:01:43;11.48;;;7.05;;
77423;SDS011;66494;47.172;14.678;2023-06-04T00:02:45;7.22;;;6.13;;
77423;SDS011;66494;47.172;14.678;2023-06-04T00:03:46;12.18;;;7.10;;
77423;SDS011;66494;47.172;14.678;2023-06-04T00:04:46;14.68;;;8.50;;
77423;SDS011;66494;47.172;14.678;2023-06-04T00:06:46;10.55;;;7.07;;
77423;SDS011;66494;47.172;14.678;2023-06-04T00:07:46;15.48;;;8.00;;
77423;SDS011;66494;47.172;14.678;2023-06-04T00:08:47;8.27;;;7.05;;
77423;SDS011;66494;47.172;14.678;2023-06-04T00:09:47;9.52;;;6.75;;
77423;SDS011;66494;47.172;14.678;2023-06-04T00:10:47;12.60;;;7.43;;
77423;SDS011;66494;47.172;14.678;2023-06-04T00:11:48;9.18;;;6.97;;
77423;SDS011;66494;47.172;14.678;2023-06-04T00:12:48;9.40;;;7.32;;
77423;SDS011;66494;47.172;14.678;2023-06-04T00:13:48;13.55;;;6.93;;
77423;SDS011;66494;47.172;14.678;2023-06-04T00:14:48;10.75;;;7.28;;
77423;SDS011;66494;47.172;14.678;2023-06-04T00:15:49;10.88;;;7.45;;
77423;SDS011;66494;47.172;14.678;2023-06-04T00:16:49;9.50;;;7.22;;
77423;SDS011;66494;47.172;14.678;2023-06-04T00:17:49;11.85;;;7.53;;
77423;SDS011;66494;47.172;14.678;2023-06-04T00:18:49;11.02;;;7.22;;
77423;SDS011;66494;47.172;14.678;2023-06-04T00:20:50;8.70;;;6.32;;
77423;SDS011;66494;47.172;14.678;2023-06-04T00:21:50;10.90;;;7.68;;
77423;SDS011;66494;47.172;14.678;2023-06-04T00:22:50;9.35;;;6.82;;
77423;SDS011;66494;47.172;14.678;2023-06-04T00:23:50;10.32;;;6.55;;
77423;SDS011;66494;47.172;14.678;2023-06-04T00:24:51;8.05;;;7.25;;
77423;SDS011;66494;47.172;14.678;2023-06-04T00:25:51;7.47;;;6.47;;
77423;SDS011;66494;47.172;14.678;2023-06-04T00:26:51;7.88;;;6.88;;
77423;SDS011;66494;47.172;14.678;2023-06-04T00:27:51;8.23;;;6.32;;
77423;SDS011;66494;47.172;14.678;2023-06-04T00:28:53;8.70;;;7.80;;
77423;SDS011;66494;47.172;14.678;2023-06-04T00:29:53;10.30;;;7.18;;
77423;SDS011;66494;47.172;14.678;2023-06-04T00:30:54;10.32;;;7.25;;
77423;SDS011;66494;47.172;14.678;2023-06-04T00:31:54;15.73;;;8.48;;
77423;SDS011;66494;47.172;14.678;2023-06-04T00:32:54;10.60;;;7.78;;
77423;SDS011;66494;47.172;14.678;2023-06-04T00:33:55;10.70;;;7.38;;
77423;SDS011;66494;47.172;14.678;2023-06-04T00:34:55;9.68;;;7.43;;
77423;SDS011;66494;47.172;14.678;2023-06-04T00:35:58;10.90;;;7.68;;
77423;SDS011;66494;47.172;14.678;2023-06-04T00:36:58;10.63;;;7.50;;
77423;SDS011;66494;47.172;14.678;2023-06-04T00:37:58;9.82;;;7.32;;
77423;SDS011;66494;47.172;14.678;2023-06-04T00:39:58;11.05;;;6.57;;
77423;SDS011;66494;47.172;14.678;2023-06-04T00:40:59;10.40;;;8.00;;
77423;SDS011;66494;47.172;14.678;2023-06-04T00:41:59;10.60;;;8.00;;
77423;SDS011;66494;47.172;14.678;2023-06-04T00:44:00;10.68;;;7.32;;
77423;SDS011;66494;47.172;14.678;2023-06-04T00:45:01;10.35;;;6.95;;
77423;SDS011;66494;47.172;14.678;2023-06-04T00:46:02;8.98;;;6.80;;
77423;SDS011;66494;47.172;14.678;2023-06-04T00:47:03;8.98;;;7.05;;
77423;SDS011;66494;47.172;14.678;2023-06-04T00:48:03;8.13;;;6.07;;
77423;SDS011;66494;47.172;14.678;2023-06-04T00:50:04;10.68;;;6.30;;
77423;SDS011;66494;47.172;14.678;2023-06-04T00:52:05;10.25;;;7.15;;
77423;SDS011;66494;47.172;14.678;2023-06-04T00:54:07;10.02;;;6.70;;
77423;SDS011;66494;47.172;14.678;2023-06-04T00:55:09;9.80;;;7.00;;
77423;SDS011;66494;47.172;14.678;2023-06-04T00:56:09;10.45;;;7.82;;
77423;SDS011;66494;47.172;14.678;2023-06-04T00:57:10;10.63;;;6.72;;
77423;SDS011;66494;47.172;14.678;2023-06-04T00:58:10;9.48;;;7.57;;
77423;SDS011;66494;47.172;14.678;2023-06-04T00:59:10;11.95;;;7.30;;
77423;SDS011;66494;47.172;14.678;2023-06-04T01:00:11;9.93;;;7.15;;
77423;SDS011;66494;47.172;14.678;2023-06-04T01:01:15;8.35;;;6.43;;
77423;SDS011;66494;47.172;14.678;2023-06-04T01:02:21;9.73;;;6.95;;
77423;SDS011;66494;47.172;14.678;2023-06-04T01:03:23;9.45;;;6.80;;
77423;SDS011;66494;47.172;14.678;2023-06-04T01:06:50;12.32;;;7.88;;
77423;SDS011;66494;47.172;14.678;2023-06-04T01:07:53;11.68;;;8.30;;
77423;SDS011;66494;47.172;14.678;2023-06-04T01:08:53;13.13;;;6.70;;
77423;SDS011;66494;47.172;14.678;2023-06-04T01:09:54;10.18;;;7.45;;
77423;SDS011;66494;47.172;14.678;2023-06-04T01:11:56;8.77;;;6.43;;
77423;SDS011;66494;47.172;14.678;2023-06-04T01:13:01;9.15;;;6.18;;
77423;SDS011;66494;47.172;14.678;2023-06-04T01:14:02;10.15;;;6.85;;
77423;SDS011;66494;47.172;14.678;2023-06-04T01:15:03;10.65;;;6.55;;
77423;SDS011;66494;47.172;14.678;2023-06-04T01:16:04;9.13;;;6.57;;
77423;SDS011;66494;47.172;14.678;2023-06-04T01:17:25;8.23;;;6.50;;
77423;SDS011;66494;47.172;14.678;2023-06-04T01:18:28;11.18;;;7.22;;
77423;SDS011;66494;47.172;14.678;2023-06-04T01:20:33;10.55;;;7.93;;
77423;SDS011;66494;47.172;14.678;2023-06-04T01:21:34;9.85;;;7.75;;
77423;SDS011;66494;47.172;14.678;2023-06-04T01:23:51;9.80;;;7.13;;
77423;SDS011;66494;47.172;14.678;2023-06-04T01:25:04;11.55;;;7.57;;
77423;SDS011;66494;47.172;14.678;2023-06-04T01:26:04;9.90;;;7.60;;
77423;SDS011;66494;47.172;14.678;2023-06-04T01:27:05;8.55;;;7.50;;
77423;SDS011;66494;47.172;14.678;2023-06-04T01:28:07;13.70;;;7.60;;
77423;SDS011;66494;47.172;14.678;2023-06-04T01:29:07;12.13;;;8.95;;
77423;SDS011;66494;47.172;14.678;2023-06-04T01:30:09;9.93;;;7.55;;
77423;SDS011;66494;47.172;14.678;2023-06-04T01:31:11;11.43;;;8.43;;
77423;SDS011;66494;47.172;14.678;2023-06-04T01:32:12;10.85;;;7.93;;
77423;SDS011;66494;47.172;14.678;2023-06-04T01:33:13;8.73;;;7.25;;
77423;SDS011;66494;47.172;14.678;2023-06-04T01:35:14;9.37;;;7.30;;
77423;SDS011;66494;47.172;14.678;2023-06-04T01:36:14;9.82;;;7.05;;
77423;SDS011;66494;47.172;14.678;2023-06-04T01:38:18;9.20;;;7.22;;
77423;SDS011;66494;47.172;14.678;2023-06-04T01:39:18;11.00;;;7.75;;
77423;SDS011;66494;47.172;14.678;2023-06-04T01:40:19;11.48;;;7.88;;
77423;SDS011;66494;47.172;14.678;2023-06-04T01:41:19;11.25;;;7.38;;
77423;SDS011;66494;47.172;14.678;2023-06-04T01:42:20;9.60;;;7.40;;
77423;SDS011;66494;47.172;14.678;2023-06-04T01:43:20;10.23;;;8.50;;
77423;SDS011;66494;47.172;14.678;2023-06-04T01:44:20;11.52;;;8.57;;
77423;SDS011;66494;47.172;14.678;2023-06-04T01:45:21;11.20;;;8.25;;
77423;SDS011;66494;47.172;14.678;2023-06-04T01:46:21;8.27;;;7.43;;
77423;SDS011;66494;47.172;14.678;2023-06-04T01:47:22;11.80;;;7.13;;
77423;SDS011;66494;47.172;14.678;2023-06-04T01:48:22;8.57;;;6.70;;
77423;SDS011;66494;47.172;14.678;2023-06-04T01:49:22;9.45;;;7.35;;
77423;SDS011;66494;47.172;14.678;2023-06-04T01:50:23;8.30;;;7.47;;
77423;SDS011;66494;47.172;14.678;2023-06-04T01:51:23;10.85;;;7.47;;
77423;SDS011;66494;47.172;14.678;2023-06-04T01:52:23;10.27;;;6.95;;
77423;SDS011;66494;47.172;14.678;2023-06-04T01:53:23;13.25;;;8.40;;
77423;SDS011;66494;47.172;14.678;2023-06-04T01:54:24;8.35;;;6.68;;
77423;SDS011;66494;47.172;14.678;2023-06-04T01:55:24;10.23;;;7.15;;
77423;SDS011;66494;47.172;14.678;2023-06-04T01:56:29;10.70;;;7.65;;
77423;SDS011;66494;47.172;14.678;2023-06-04T01:57:30;11.35;;;7.10;;
77423;SDS011;66494;47.172;14.678;2023-06-04T01:58:30;13.13;;;8.27;;
77423;SDS011;66494;47.172;14.678;2023-06-04T01:59:32;10.13;;;7.28;;
77423;SDS011;66494;47.172;14.678;2023-06-04T02:00:33;11.05;;;6.65;;
77423;SDS011;66494;47.172;14.678;2023-06-04T02:01:33;8.82;;;6.55;;
77423;SDS011;66494;47.172;14.678;2023-06-04T02:02:34;10.68;;;7.55;;
77423;SDS011;66494;47.172;14.678;2023-06-04T02:03:35;10.68;;;7.88;;
77423;SDS011;66494;47.172;14.678;2023-06-04T02:04:38;9.70;;;7.55;;
77423;SDS011;66494;47.172;14.678;2023-06-04T02:05:41;8.02;;;6.18;;
77423;SDS011;66494;47.172;14.678;2023-06-04T02:06:44;9.60;;;7.72;;
77423;SDS011;66494;47.172;14.678;2023-06-04T02:07:45;10.27;;;7.07;;
77423;SDS011;66494;47.172;14.678;2023-06-04T02:08:45;8.52;;;7.18;;
77423;SDS011;66494;47.172;14.678;2023-06-04T02:09:46;10.98;;;7.68;;
77423;SDS011;66494;47.172;14.678;2023-06-04T02:10:47;15.40;;;7.75;;
77423;SDS011;66494;47.172;14.678;2023-06-04T02:12:54;12.07;;;8.63;;
77423;SDS011;66494;47.172;14.678;2023-06-04T02:13:55;8.48;;;7.18;;
77423;SDS011;66494;47.172;14.678;2023-06-04T02:14:55;10.07;;;6.65;;
77423;SDS011;66494;47.172;14.678;2023-06-04T02:15:55;10.27;;;6.25;;
77423;SDS011;66494;47.172;14.678;2023-06-04T02:16:56;8.38;;;6.60;;
77423;SDS011;66494;47.172;14.678;2023-06-04T02:18:11;11.82;;;6.95;;
77423;SDS011;66494;47.172;14.678;2023-06-04T02:19:16;9.93;;;6.82;;
77423;SDS011;66494;47.172;14.678;2023-06-04T02:20:18;11.13;;;7.43;;
77423;SDS011;66494;47.172;14.678;2023-06-04T02:21:19;12.27;;;6.60;;
77423;SDS011;66494;47.172;14.678;2023-06-04T02:22:19;10.52;;;6.93;;
77423;SDS011;66494;47.172;14.678;2023-06-04T02:23:19;9.95;;;7.60;;
77423;SDS011;66494;47.172;14.678;2023-06-04T02:24:21;13.27;;;8.68;;
77423;SDS011;66494;47.172;14.678;2023-06-04T02:25:21;8.93;;;7.50;;
77423;SDS011;66494;47.172;14.678;2023-06-04T02:26:22;10.90;;;7.75;;
77423;SDS011;66494;47.172;14.678;2023-06-04T02:27:23;10.75;;;7.93;;
77423;SDS011;66494;47.172;14.678;2023-06-04T02:28:23;12.95;;;8.00;;
77423;SDS011;66494;47.172;14.678;2023-06-04T02:30:25;11.73;;;6.73;;
77423;SDS011;66494;47.172;14.678;2023-06-04T02:31:25;9.75;;;8.18;;
77423;SDS011;66494;47.172;14.678;2023-06-04T02:32:25;9.20;;;7.05;;
77423;SDS011;66494;47.172;14.678;2023-06-04T02:33:25;10.75;;;7.32;;
77423;SDS011;66494;47.172;14.678;2023-06-04T02:34:26;11.80;;;7.93;;
77423;SDS011;66494;47.172;14.678;2023-06-04T02:35:29;9.15;;;6.88;;
77423;SDS011;66494;47.172;14.678;2023-06-04T02:36:30;10.48;;;7.68;;
77423;SDS011;66494;47.172;14.678;2023-06-04T02:37:30;10.40;;;7.15;;
77423;SDS011;66494;47.172;14.678;2023-06-04T02:38:30;8.88;;;7.40;;
77423;SDS011;66494;47.172;14.678;2023-06-04T02:39:30;8.43;;;7.45;;
77423;SDS011;66494;47.172;14.678;2023-06-04T02:40:31;10.52;;;6.88;;
77423;SDS011;66494;47.172;14.678;2023-06-04T02:41:31;9.02;;;7.80;;
77423;SDS011;66494;47.172;14.678;2023-06-04T02:42:31;11.98;;;8.27;;
77423;SDS011;66494;47.172;14.678;2023-06-04T02:43:31;9.98;;;7.40;;
77423;SDS011;66494;47.172;14.678;2023-06-04T02:44:32;12.95;;;7.65;;
77423;SDS011;66494;47.172;14.678;2023-06-04T02:45:32;12.75;;;9.02;;
77423;SDS011;66494;47.172;14.678;2023-06-04T02:46:32;9.27;;;7.82;;
77423;SDS011;66494;47.172;14.678;2023-06-04T02:47:32;9.55;;;7.75;;
77423;SDS011;66494;47.172;14.678;2023-06-04T02:48:33;12.35;;;7.70;;
77423;SDS011;66494;47.172;14.678;2023-06-04T02:49:33;9.02;;;7.30;;
77423;SDS011;66494;47.172;14.678;2023-06-04T02:50:33;10.48;;;7.60;;
77423;SDS011;66494;47.172;14.678;2023-06-04T02:52:33;9.10;;;6.82;;
77423;SDS011;66494;47.172;14.678;2023-06-04T02:53:36;8.88;;;7.05;;
77423;SDS011;66494;47.172;14.678;2023-06-04T02:54:37;8.13;;;6.45;;
77423;SDS011;66494;47.172;14.678;2023-06-04T02:55:37;10.35;;;8.32;;
77423;SDS011;66494;47.172;14.678;2023-06-04T02:56:37;10.93;;;7.55;;
77423;SDS011;66494;47.172;14.678;2023-06-04T02:57:41;11.35;;;7.13;;
77423;SDS011;66494;47.172;14.678;2023-06-04T02:59:51;15.07;;;7.35;;
77423;SDS011;66494;47.172;14.678;2023-06-04T03:00:52;9.63;;;7.65;;
77423;SDS011;66494;47.172;14.678;2023-06-04T03:01:52;13.18;;;7.88;;
77423;SDS011;66494;47.172;14.678;2023-06-04T03:02:53;10.73;;;8.43;;
77423;SDS011;66494;47.172;14.678;2023-06-04T03:04:01;8.45;;;7.10;;
77423;SDS011;66494;47.172;14.678;2023-06-04T03:05:04;8.27;;;6.85;;
77423;SDS011;66494;47.172;14.678;2023-06-04T03:06:05;14.10;;;7.50;;
77423;SDS011;66494;47.172;14.678;2023-06-04T03:07:05;8.68;;;7.55;;
77423;SDS011;66494;47.172;14.678;2023-06-04T03:08:08;11.32;;;7.65;;
77423;SDS011;66494;47.172;14.678;2023-06-04T03:09:08;9.07;;;7.35;;
77423;SDS011;66494;47.172;14.678;2023-06-04T03:10:09;11.27;;;8.48;;
77423;SDS011;66494;47.172;14.678;2023-06-04T03:11:09;9.55;;;7.38;;
77423;SDS011;66494;47.172;14.678;2023-06-04T03:12:10;11.65;;;8.15;;
77423;SDS011;66494;47.172;14.678;2023-06-04T03:13:10;10.27;;;7.65;;
77423;SDS011;66494;47.172;14.678;2023-06-04T03:14:10;8.60;;;7.35;;
77423;SDS011;66494;47.172;14.678;2023-06-04T03:15:11;9.60;;;7.10;;
77423;SDS011;66494;47.172;14.678;2023-06-04T03:16:11;13.13;;;8.68;;
77423;SDS011;66494;47.172;14.678;2023-06-04T03:17:12;10.27;;;7.68;;
77423;SDS011;66494;47.172;14.678;2023-06-04T03:18:12;11.73;;;7.78;;
77423;SDS011;66494;47.172;14.678;2023-06-04T03:19:13;10.40;;;8.55;;
77423;SDS011;66494;47.172;14.678;2023-06-04T03:20:13;9.60;;;7.95;;
77423;SDS011;66494;47.172;14.678;2023-06-04T03:22:13;8.88;;;7.07;;
77423;SDS011;66494;47.172;14.678;2023-06-04T03:23:14;9.40;;;7.70;;
77423;SDS011;66494;47.172;14.678;2023-06-04T03:24:14;9.18;;;7.57;;
77423;SDS011;66494;47.172;14.678;2023-06-04T03:25:14;10.77;;;7.40;;
77423;SDS011;66494;47.172;14.678;2023-06-04T03:26:14;9.05;;;6.35;;
77423;SDS011;66494;47.172;14.678;2023-06-04T03:27:15;13.15;;;7.45;;
77423;SDS011;66494;47.172;14.678;2023-06-04T03:28:15;11.23;;;7.38;;
77423;SDS011;66494;47.172;14.678;2023-06-04T03:30:15;10.50;;;6.70;;
77423;SDS011;66494;47.172;14.678;2023-06-04T03:31:15;9.68;;;7.30;;
77423;SDS011;66494;47.172;14.678;2023-06-04T03:32:16;12.00;;;7.65;;
77423;SDS011;66494;47.172;14.678;2023-06-04T03:33:16;9.23;;;7.30;;
77423;SDS011;66494;47.172;14.678;2023-06-04T03:34:17;11.63;;;7.95;;
77423;SDS011;66494;47.172;14.678;2023-06-04T03:35:17;11.10;;;8.23;;
77423;SDS011;66494;47.172;14.678;2023-06-04T03:36:17;10.40;;;7.28;;
77423;SDS011;66494;47.172;14.678;2023-06-04T03:37:17;13.55;;;8.02;;
77423;SDS011;66494;47.172;14.678;2023-06-04T03:38:20;11.10;;;7.85;;
77423;SDS011;66494;47.172;14.678;2023-06-04T03:39:21;11.57;;;7.68;;
77423;SDS011;66494;47.172;14.678;2023-06-04T03:40:21;11.75;;;8.35;;
77423;SDS011;66494;47.172;14.678;2023-06-04T03:41:22;10.48;;;7.35;;
77423;SDS011;66494;47.172;14.678;2023-06-04T03:42:22;10.35;;;7.50;;
77423;SDS011;66494;47.172;14.678;2023-06-04T03:43:22;14.07;;;7.38;;
77423;SDS011;66494;47.172;14.678;2023-06-04T03:44:22;10.10;;;7.05;;
77423;SDS011;66494;47.172;14.678;2023-06-04T03:45:23;12.05;;;7.43;;
77423;SDS011;66494;47.172;14.678;2023-06-04T03:46:23;10.27;;;7.00;;
77423;SDS011;66494;47.172;14.678;2023-06-04T03:47:26;17.25;;;7.47;;
77423;SDS011;66494;47.172;14.678;2023-06-04T03:48:26;11.02;;;7.72;;
77423;SDS011;66494;47.172;14.678;2023-06-04T03:49:27;12.82;;;7.90;;
77423;SDS011;66494;47.172;14.678;2023-06-04T03:50:27;14.93;;;7.28;;
77423;SDS011;66494;47.172;14.678;2023-06-04T03:51:27;9.30;;;6.70;;
77423;SDS011;66494;47.172;14.678;2023-06-04T03:52:28;11.52;;;7.13;;
77423;SDS011;66494;47.172;14.678;2023-06-04T03:53:28;8.93;;;7.22;;
77423;SDS011;66494;47.172;14.678;2023-06-04T03:54:28;9.85;;;7.35;;
77423;SDS011;66494;47.172;14.678;2023-06-04T03:55:28;10.18;;;7.45;;
77423;SDS011;66494;47.172;14.678;2023-06-04T03:56:28;10.43;;;7.55;;
77423;SDS011;66494;47.172;14.678;2023-06-04T03:57:29;10.73;;;6.68;;
77423;SDS011;66494;47.172;14.678;2023-06-04T03:58:29;10.63;;;7.30;;
77423;SDS011;66494;47.172;14.678;2023-06-04T03:59:29;11.10;;;7.22;;
77423;SDS011;66494;47.172;14.678;2023-06-04T04:00:30;9.93;;;7.20;;
77423;SDS011;66494;47.172;14.678;2023-06-04T04:01:30;7.53;;;6.22;;
77423;SDS011;66494;47.172;14.678;2023-06-04T04:02:31;18.52;;;8.63;;
77423;SDS011;66494;47.172;14.678;2023-06-04T04:03:31;10.32;;;7.53;;
77423;SDS011;66494;47.172;14.678;2023-06-04T04:04:31;9.35;;;7.00;;
77423;SDS011;66494;47.172;14.678;2023-06-04T04:05:33;11.35;;;7.32;;
77423;SDS011;66494;47.172;14.678;2023-06-04T04:06:33;8.80;;;7.22;;
77423;SDS011;66494;47.172;14.678;2023-06-04T04:07:33;13.20;;;7.75;;
77423;SDS011;66494;47.172;14.678;2023-06-04T04:08:33;13.52;;;7.22;;
77423;SDS011;66494;47.172;14.678;2023-06-04T04:09:34;9.43;;;7.70;;
77423;SDS011;66494;47.172;14.678;2023-06-04T04:10:34;11.95;;;8.02;;
77423;SDS011;66494;47.172;14.678;2023-06-04T04:12:35;12.50;;;6.50;;
77423;SDS011;66494;47.172;14.678;2023-06-04T04:13:35;11.23;;;7.68;;
77423;SDS011;66494;47.172;14.678;2023-06-04T04:14:35;8.75;;;7.82;;
77423;SDS011;66494;47.172;14.678;2023-06-04T04:15:35;9.20;;;7.18;;
77423;SDS011;66494;47.172;14.678;2023-06-04T04:17:36;10.50;;;7.93;;
77423;SDS011;66494;47.172;14.678;2023-06-04T04:18:36;9.05;;;7.68;;
77423;SDS011;66494;47.172;14.678;2023-06-04T04:20:36;8.35;;;6.88;;
77423;SDS011;66494;47.172;14.678;2023-06-04T04:21:37;10.55;;;7.47;;
77423;SDS011;66494;47.172;14.678;2023-06-04T04:22:40;15.40;;;8.52;;
77423;SDS011;66494;47.172;14.678;2023-06-04T04:23:41;9.75;;;7.65;;
77423;SDS011;66494;47.172;14.678;2023-06-04T04:24:42;12.30;;;8.13;;
77423;SDS011;66494;47.172;14.678;2023-06-04T04:25:43;11.55;;;8.40;;
77423;SDS011;66494;47.172;14.678;2023-06-04T04:26:47;10.48;;;8.57;;
77423;SDS011;66494;47.172;14.678;2023-06-04T04:27:48;10.48;;;7.78;;
77423;SDS011;66494;47.172;14.678;2023-06-04T04:28:48;11.43;;;8.25;;
77423;SDS011;66494;47.172;14.678;2023-06-04T04:29:49;9.00;;;7.53;;
77423;SDS011;66494;47.172;14.678;2023-06-04T04:30:50;10.75;;;7.90;;
77423;SDS011;66494;47.172;14.678;2023-06-04T04:31:51;10.00;;;7.65;;
77423;SDS011;66494;47.172;14.678;2023-06-04T04:32:51;11.52;;;7.40;;
77423;SDS011;66494;47.172;14.678;2023-06-04T04:33:51;30.17;;;22.58;;
77423;SDS011;66494;47.172;14.678;2023-06-04T04:34:52;117.15;;;82.70;;
77423;SDS011;66494;47.172;14.678;2023-06-04T04:35:53;163.98;;;119.35;;
77423;SDS011;66494;47.172;14.678;2023-06-04T04:36:53;53.65;;;39.28;;
77423;SDS011;66494;47.172;14.678;2023-06-04T04:37:54;47.15;;;36.38;;
77423;SDS011;66494;47.172;14.678;2023-06-04T04:38:54;15.25;;;11.07;;
77423;SDS011;66494;47.172;14.678;2023-06-04T04:39:55;11.90;;;8.60;;
77423;SDS011;66494;47.172;14.678;2023-06-04T04:40:55;13.23;;;8.18;;
77423;SDS011;66494;47.172;14.678;2023-06-04T04:41:55;11.48;;;8.27;;
77423;SDS011;66494;47.172;14.678;2023-06-04T04:42:55;8.18;;;7.03;;
77423;SDS011;66494;47.172;14.678;2023-06-04T04:44:02;11.07;;;8.02;;
77423;SDS011;66494;47.172;14.678;2023-06-04T04:45:02;9.38;;;7.90;;
77423;SDS011;66494;47.172;14.678;2023-06-04T04:46:02;13.90;;;7.72;;
77423;SDS011;66494;47.172;14.678;2023-06-04T04:47:03;11.60;;;7.30;;
77423;SDS011;66494;47.172;14.678;2023-06-04T04:48:03;14.20;;;9.27;;
77423;SDS011;66494;47.172;14.678;2023-06-04T04:49:03;14.35;;;8.40;;
77423;SDS011;66494;47.172;14.678;2023-06-04T04:50:04;10.43;;;8.27;;
77423;SDS011;66494;47.172;14.678;2023-06-04T04:52:05;11.73;;;8.07;;
77423;SDS011;66494;47.172;14.678;2023-06-04T04:53:05;8.80;;;7.00;;
77423;SDS011;66494;47.172;14.678;2023-06-04T04:54:05;10.93;;;8.02;;
77423;SDS011;66494;47.172;14.678;2023-06-04T04:55:06;12.13;;;8.27;;
77423;SDS011;66494;47.172;14.678;2023-06-04T04:56:06;10.88;;;7.90;;
77423;SDS011;66494;47.172;14.678;2023-06-04T04:57:06;14.80;;;8.07;;
77423;SDS011;66494;47.172;14.678;2023-06-04T04:58:07;16.92;;;8.43;;
77423;SDS011;66494;47.172;14.678;2023-06-04T05:00:08;9.30;;;7.30;;
77423;SDS011;66494;47.172;14.678;2023-06-04T05:01:09;10.63;;;8.15;;
77423;SDS011;66494;47.172;14.678;2023-06-04T05:02:09;12.80;;;8.70;;
77423;SDS011;66494;47.172;14.678;2023-06-04T05:03:09;9.98;;;7.28;;
77423;SDS011;66494;47.172;14.678;2023-06-04T05:04:10;13.02;;;8.85;;
77423;SDS011;66494;47.172;14.678;2023-06-04T05:05:10;10.95;;;8.35;;
77423;SDS011;66494;47.172;14.678;2023-06-04T05:06:10;12.45;;;8.05;;
77423;SDS011;66494;47.172;14.678;2023-06-04T05:07:11;8.23;;;7.15;;
77423;SDS011;66494;47.172;14.678;2023-06-04T05:08:11;9.25;;;7.57;;
77423;SDS011;66494;47.172;14.678;2023-06-04T05:09:11;11.30;;;7.80;;
77423;SDS011;66494;47.172;14.678;2023-06-04T05:10:12;9.98;;;8.57;;
77423;SDS011;66494;47.172;14.678;2023-06-04T05:11:12;10.88;;;7.60;;
77423;SDS011;66494;47.172;14.678;2023-06-04T05:12:13;226.63;;;180.23;;
77423;SDS011;66494;47.172;14.678;2023-06-04T05:13:13;241.15;;;182.50;;
77423;SDS011;66494;47.172;14.678;2023-06-04T05:15:13;119.93;;;86.05;;
77423;SDS011;66494;47.172;14.678;2023-06-04T05:16:14;50.67;;;38.72;;
77423;SDS011;66494;47.172;14.678;2023-06-04T05:17:14;22.00;;;15.95;;
77423;SDS011;66494;47.172;14.678;2023-06-04T05:18:16;14.43;;;10.48;;
77423;SDS011;66494;47.172;14.678;2023-06-04T05:19:16;9.43;;;8.27;;
77423;SDS011;66494;47.172;14.678;2023-06-04T05:20:17;13.43;;;8.07;;
77423;SDS011;66494;47.172;14.678;2023-06-04T05:21:17;14.27;;;7.85;;
77423;SDS011;66494;47.172;14.678;2023-06-04T05:22:18;9.43;;;7.65;;
77423;SDS011;66494;47.172;14.678;2023-06-04T05:23:19;10.82;;;7.68;;
77423;SDS011;66494;47.172;14.678;2023-06-04T05:24:19;9.40;;;7.32;;
77423;SDS011;66494;47.172;14.678;2023-06-04T05:25:19;9.40;;;7.90;;
77423;SDS011;66494;47.172;14.678;2023-06-04T05:27:28;12.95;;;7.85;;
77423;SDS011;66494;47.172;14.678;2023-06-04T05:28:28;11.18;;;7.78;;
77423;SDS011;66494;47.172;14.678;2023-06-04T05:29:28;13.82;;;7.28;;
77423;SDS011;66494;47.172;14.678;2023-06-04T05:30:29;9.95;;;7.78;;
77423;SDS011;66494;47.172;14.678;2023-06-04T05:31:29;7.80;;;6.53;;
77423;SDS011;66494;47.172;14.678;2023-06-04T05:32:33;12.52;;;7.97;;
77423;SDS011;66494;47.172;14.678;2023-06-04T05:33:33;10.30;;;7.68;;
77423;SDS011;66494;47.172;14.678;2023-06-04T05:34:33;13.70;;;7.55;;
77423;SDS011;66494;47.172;14.678;2023-06-04T05:35:36;12.68;;;7.00;;
77423;SDS011;66494;47.172;14.678;2023-06-04T05:36:41;11.68;;;7.55;;
77423;SDS011;66494;47.172;14.678;2023-06-04T05:37:41;10.85;;;8.43;;
77423;SDS011;66494;47.172;14.678;2023-06-04T05:38:41;13.02;;;8.50;;
77423;SDS011;66494;47.172;14.678;2023-06-04T05:39:42;11.32;;;7.30;;
77423;SDS011;66494;47.172;14.678;2023-06-04T05:40:43;9.93;;;8.00;;
77423;SDS011;66494;47.172;14.678;2023-06-04T05:41:43;11.65;;;7.35;;
77423;SDS011;66494;47.172;14.678;2023-06-04T05:42:43;10.32;;;7.93;;
77423;SDS011;66494;47.172;14.678;2023-06-04T05:43:43;14.02;;;8.48;;
77423;SDS011;66494;47.172;14.678;2023-06-04T05:44:44;13.98;;;9.27;;
77423;SDS011;66494;47.172;14.678;2023-06-04T05:46:46;9.27;;;7.72;;
77423;SDS011;66494;47.172;14.678;2023-06-04T05:47:46;9.98;;;6.18;;
77423;SDS011;66494;47.172;14.678;2023-06-04T05:48:47;12.93;;;8.40;;
77423;SDS011;66494;47.172;14.678;2023-06-04T05:49:47;10.40;;;7.70;;
77423;SDS011;66494;47.172;14.678;2023-06-04T05:51:47;9.88;;;8.27;;
77423;SDS011;66494;47.172;14.678;2023-06-04T05:53:47;11.35;;;8.07;;
77423;SDS011;66494;47.172;14.678;2023-06-04T05:54:48;14.35;;;7.20;;
77423;SDS011;66494;47.172;14.678;2023-06-04T05:55:48;12.48;;;8.23;;
77423;SDS011;66494;47.172;14.678;2023-06-04T05:56:49;8.45;;;7.55;;
77423;SDS011;66494;47.172;14.678;2023-06-04T05:57:49;8.98;;;7.65;;
77423;SDS011;66494;47.172;14.678;2023-06-04T05:58:52;8.60;;;7.50;;
77423;SDS011;66494;47.172;14.678;2023-06-04T05:59:52;10.98;;;7.97;;
77423;SDS011;66494;47.172;14.678;2023-06-04T06:00:52;11.20;;;8.07;;
77423;SDS011;66494;47.172;14.678;2023-06-04T06:01:53;11.20;;;7.90;;
77423;SDS011;66494;47.172;14.678;2023-06-04T06:02:53;10.65;;;8.35;;
77423;SDS011;66494;47.172;14.678;2023-06-04T06:03:54;10.52;;;7.97;;
77423;SDS011;66494;47.172;14.678;2023-06-04T06:04:54;12.95;;;7.97;;
77423;SDS011;66494;47.172;14.678;2023-06-04T06:05:55;11.02;;;8.73;;
77423;SDS011;66494;47.172;14.678;2023-06-04T06:06:57;10.90;;;7.55;;
77423;SDS011;66494;47.172;14.678;2023-06-04T06:07:57;9.18;;;7.55;;
77423;SDS011;66494;47.172;14.678;2023-06-04T06:08:57;10.50;;;7.68;;
77423;SDS011;66494;47.172;14.678;2023-06-04T06:09:58;11.70;;;8.48;;
77423;SDS011;66494;47.172;14.678;2023-06-04T06:10:58;12.80;;;8.32;;
77423;SDS011;66494;47.172;14.678;2023-06-04T06:12:58;12.75;;;7.85;;
77423;SDS011;66494;47.172;14.678;2023-06-04T06:14:00;11.18;;;9.18;;
77423;SDS011;66494;47.172;14.678;2023-06-04T06:15:01;12.45;;;7.80;;
77423;SDS011;66494;47.172;14.678;2023-06-04T06:16:01;10.55;;;7.82;;
77423;SDS011;66494;47.172;14.678;2023-06-04T06:17:02;11.48;;;9.43;;
77423;SDS011;66494;47.172;14.678;2023-06-04T06:18:03;13.30;;;8.88;;
77423;SDS011;66494;47.172;14.678;2023-06-04T06:20:03;16.20;;;9.48;;
77423;SDS011;66494;47.172;14.678;2023-06-04T06:21:07;12.20;;;9.43;;
77423;SDS011;66494;47.172;14.678;2023-06-04T06:22:08;10.88;;;8.00;;
77423;SDS011;66494;47.172;14.678;2023-06-04T06:23:08;13.52;;;8.13;;
77423;SDS011;66494;47.172;14.678;2023-06-04T06:25:08;13.15;;;9.18;;
77423;SDS011;66494;47.172;14.678;2023-06-04T06:26:08;12.77;;;8.32;;
77423;SDS011;66494;47.172;14.678;2023-06-04T06:27:10;10.77;;;9.13;;
77423;SDS011;66494;47.172;14.678;2023-06-04T06:28:10;16.40;;;8.73;;
77423;SDS011;66494;47.172;14.678;2023-06-04T06:29:10;12.77;;;8.50;;
77423;SDS011;66494;47.172;14.678;2023-06-04T06:30:11;10.32;;;8.25;;
77423;SDS011;66494;47.172;14.678;2023-06-04T06:32:12;13.50;;;7.80;;
77423;SDS011;66494;47.172;14.678;2023-06-04T06:34:13;11.77;;;8.15;;
77423;SDS011;66494;47.172;14.678;2023-06-04T06:36:13;12.52;;;9.27;;